Time;durP1;ratioP1;P1;durP2;ratioP2;P2;SDS_P1;SDS_P2;PMS_P1;PMS_P2;Temp;Humidity;BMP_temperature;BMP_pressure;BME280_temperature;BME280_humidity;BME280_pressure;Samples;Min_cycle;Max_cycle;Signal;HPM_P1;HPM_P2
2021/11/14 00:01:33;;;;;;;6.00;5.20;;;10.80;99.90;;;;;;6161835;23;20420;-86
2021/11/14 00:04:04;;;;;;;5.27;4.77;;;10.80;99.90;;;;;;6163078;23;20419;-87
2021/11/14 00:06:33;;;;;;;5.70;5.20;;;10.90;99.90;;;;;;6162382;23;20410;-87
2021/11/14 00:09:07;;;;;;;5.53;5.00;;;10.70;99.90;;;;;;6162695;23;20437;-89
2021/11/14 00:11:37;;;;;;;5.27;4.87;;;10.80;99.90;;;;;;6185314;23;21009;-86
2021/11/14 00:14:10;;;;;;;5.67;5.20;;;10.90;99.90;;;;;;6161660;23;20545;-87
2021/11/14 00:16:41;;;;;;;5.30;4.60;;;10.70;99.90;;;;;;6159258;23;20422;-86
2021/11/14 00:19:11;;;;;;;5.87;4.97;;;10.80;99.90;;;;;;6163717;23;20441;-86
2021/11/14 00:21:43;;;;;;;4.87;4.40;;;10.80;99.90;;;;;;6161809;23;20433;-88
2021/11/14 00:24:14;;;;;;;5.90;4.50;;;10.70;99.90;;;;;;6163488;23;20453;-86
2021/11/14 00:26:46;;;;;;;5.27;4.83;;;10.80;99.90;;;;;;6139584;23;20398;-89
2021/11/14 00:29:17;;;;;;;5.27;4.87;;;10.70;99.90;;;;;;6162714;23;20506;-89
2021/11/14 00:31:50;;;;;;;5.23;4.60;;;10.60;99.90;;;;;;6165560;23;20421;-86
2021/11/14 00:34:19;;;;;;;4.70;4.40;;;10.60;99.90;;;;;;6188199;23;20416;-87
2021/11/14 00:36:54;;;;;;;5.33;4.40;;;10.70;99.90;;;;;;6163511;23;20527;-86
2021/11/14 00:39:22;;;;;;;5.10;4.60;;;10.70;99.90;;;;;;6162392;23;20458;-88
2021/11/14 00:41:52;;;;;;;5.17;4.67;;;10.80;99.90;;;;;;6163228;23;20415;-86
2021/11/14 00:44:28;;;;;;;5.10;4.70;;;10.60;99.90;;;;;;6162185;23;20430;-88
2021/11/14 00:46:57;;;;;;;4.80;4.30;;;10.80;99.90;;;;;;6137663;23;20411;-86
2021/11/14 00:49:28;;;;;;;5.03;4.50;;;10.80;99.90;;;;;;6160906;23;21264;-86
2021/11/14 00:52:04;;;;;;;5.50;4.77;;;10.80;99.90;;;;;;6159477;23;20415;-86
2021/11/14 00:54:44;;;;;;;4.90;4.40;;;11.00;99.90;;;;;;6160201;23;20491;-85
2021/11/14 00:57:18;;;;;;;5.83;5.33;;;10.80;99.90;;;;;;6160326;23;20453;-87
2021/11/14 00:59:50;;;;;;;5.57;4.93;;;11.00;99.90;;;;;;6168488;23;20431;-86
2021/11/14 01:02:38;;;;;;;5.20;4.73;;;11.00;99.90;;;;;;6161622;23;20411;-87
2021/11/14 01:05:12;;;;;;;5.40;4.83;;;11.10;99.90;;;;;;6162502;23;20422;-87
2021/11/14 01:07:42;;;;;;;6.03;5.50;;;11.30;99.90;;;;;;6138000;23;20441;-85
2021/11/14 01:10:22;;;;;;;5.63;4.97;;;11.10;99.90;;;;;;6161592;23;20968;-86
2021/11/14 01:12:54;;;;;;;5.20;4.60;;;10.90;99.90;;;;;;6162450;23;20522;-86
2021/11/14 01:15:25;;;;;;;5.80;5.27;;;10.90;99.90;;;;;;6161116;23;20417;-86
2021/11/14 01:18:00;;;;;;;7.10;6.30;;;10.90;99.90;;;;;;6140758;23;20788;-88
2021/11/14 01:20:34;;;;;;;4.73;4.30;;;10.80;99.90;;;;;;6164450;23;20814;-87
2021/11/14 01:23:03;;;;;;;4.80;4.30;;;10.70;99.90;;;;;;6163311;23;20419;-87
2021/11/14 01:25:30;;;;;;;94.53;84.87;;;11.00;99.90;;;;;;6163392;23;20494;-88
2021/11/14 01:28:03;;;;;;;6.20;5.70;;;10.80;99.90;;;;;;6162088;23;20506;-88
2021/11/14 01:30:40;;;;;;;5.23;4.80;;;10.70;99.90;;;;;;6162735;23;20438;-85
2021/11/14 01:33:09;;;;;;;4.90;4.50;;;10.70;99.90;;;;;;6160211;23;20515;-89
2021/11/14 01:35:38;;;;;;;5.80;4.47;;;10.70;99.90;;;;;;6168710;23;20477;-88
2021/11/14 01:38:09;;;;;;;4.93;4.53;;;10.90;99.90;;;;;;6168516;23;20418;-89
2021/11/14 01:40:45;;;;;;;5.03;4.50;;;10.70;99.90;;;;;;6196477;23;20505;-89
2021/11/14 01:43:21;;;;;;;5.13;4.63;;;10.60;99.90;;;;;;6168280;23;20412;-89
2021/11/14 01:45:51;;;;;;;7.23;5.07;;;10.70;99.90;;;;;;6168178;23;20436;-86
2021/11/14 01:48:23;;;;;;;5.70;5.20;;;11.10;99.90;;;;;;6171428;23;20414;-86
2021/11/14 01:51:03;;;;;;;5.57;4.87;;;11.10;99.90;;;;;;6173364;23;20426;-86
2021/11/14 01:53:35;;;;;;;4.70;4.30;;;11.10;99.90;;;;;;6192567;23;20450;-87
2021/11/14 01:56:08;;;;;;;7.03;5.27;;;10.90;99.90;;;;;;6169933;23;20472;-87
2021/11/14 01:58:35;;;;;;;5.17;4.67;;;10.80;99.90;;;;;;6166279;23;20434;-89
2021/11/14 02:01:25;;;;;;;6.77;4.80;;;10.80;99.90;;;;;;6191638;23;20520;-86
2021/11/14 02:04:01;;;;;;;5.43;4.93;;;10.80;99.90;;;;;;6167201;23;20428;-86
2021/11/14 02:06:30;;;;;;;5.50;5.00;;;10.90;99.90;;;;;;6166122;23;20417;-84
2021/11/14 02:09:09;;;;;;;6.47;5.10;;;11.00;99.90;;;;;;6162834;23;20437;-86
2021/11/14 02:11:44;;;;;;;5.07;4.67;;;11.00;99.90;;;;;;6159579;23;20502;-87
2021/11/14 02:14:12;;;;;;;4.53;4.13;;;11.20;99.90;;;;;;6163048;23;20452;-87
2021/11/14 02:16:38;;;;;;;5.53;5.03;;;11.30;99.90;;;;;;6170186;23;20493;-85
2021/11/14 02:19:16;;;;;;;4.90;4.40;;;11.30;99.90;;;;;;6172739;23;20431;-87
2021/11/14 02:21:51;;;;;;;4.90;4.50;;;11.20;99.90;;;;;;6172799;23;20413;-87
2021/11/14 02:24:22;;;;;;;4.97;4.23;;;11.10;99.90;;;;;;6197928;23;20893;-87
2021/11/14 02:26:52;;;;;;;4.60;4.20;;;11.00;99.90;;;;;;6198178;23;20485;-86
2021/11/14 02:29:23;;;;;;;4.63;4.07;;;11.00;99.90;;;;;;6174223;23;20458;-86
2021/11/14 02:31:55;;;;;;;4.63;4.13;;;11.10;99.90;;;;;;6175903;23;20420;-88
2021/11/14 02:34:26;;;;;;;4.90;4.47;;;11.00;99.90;;;;;;6197308;23;20536;-89
2021/11/14 02:36:56;;;;;;;5.20;4.70;;;11.00;99.90;;;;;;6180477;23;20442;-86
2021/11/14 02:39:30;;;;;;;4.80;4.40;;;10.90;99.90;;;;;;6165302;23;20447;-85
2021/11/14 02:41:59;;;;;;;5.80;4.77;;;11.00;99.90;;;;;;6166066;23;20442;-86
2021/11/14 02:44:30;;;;;;;4.70;4.30;;;11.10;99.90;;;;;;6190735;23;20469;-87
2021/11/14 02:47:00;;;;;;;5.40;5.00;;;11.10;99.90;;;;;;6167701;23;20435;-88
2021/11/14 02:49:30;;;;;;;4.80;4.30;;;11.00;99.90;;;;;;6164975;23;20437;-88
2021/11/14 02:51:57;;;;;;;5.10;4.57;;;11.10;99.90;;;;;;6164565;23;20487;-87
2021/11/14 02:54:29;;;;;;;5.00;4.60;;;11.10;99.90;;;;;;6165213;23;20445;-86
2021/11/14 02:56:56;;;;;;;4.73;4.20;;;11.00;99.90;;;;;;6188879;23;20410;-86
2021/11/14 02:59:23;;;;;;;5.73;5.23;;;11.00;99.90;;;;;;6159666;23;20501;-88
2021/11/14 03:01:59;;;;;;;5.30;4.10;;;11.00;99.90;;;;;;6158208;23;20413;-87
2021/11/14 03:04:29;;;;;;;5.20;4.50;;;10.80;99.90;;;;;;6157564;23;20426;-87
2021/11/14 03:06:58;;;;;;;4.33;3.93;;;10.80;99.90;;;;;;6158336;23;20425;-86
2021/11/14 03:09:28;;;;;;;4.40;3.97;;;10.80;99.90;;;;;;6156952;23;20522;-89
2021/11/14 03:12:00;;;;;;;4.67;4.27;;;10.70;99.90;;;;;;6156869;23;20954;-86
2021/11/14 03:14:34;;;;;;;4.80;4.30;;;10.70;99.90;;;;;;6157199;23;20931;-86
2021/11/14 03:17:02;;;;;;;4.97;4.33;;;10.90;99.90;;;;;;6158761;23;20740;-88
2021/11/14 03:19:32;;;;;;;5.30;4.80;;;10.70;99.90;;;;;;6157419;23;20460;-87
2021/11/14 03:22:10;;;;;;;5.17;4.77;;;10.80;99.90;;;;;;6156603;23;20407;-86
2021/11/14 03:24:37;;;;;;;4.60;4.27;;;10.90;99.90;;;;;;6156970;23;20409;-85
2021/11/14 03:27:13;;;;;;;4.40;4.00;;;10.80;99.90;;;;;;6156301;23;20495;-86
2021/11/14 03:29:40;;;;;;;4.93;4.47;;;10.80;99.90;;;;;;6157361;23;20926;-86
2021/11/14 03:32:13;;;;;;;4.67;4.27;;;10.80;99.90;;;;;;6180893;23;20417;-87
2021/11/14 03:34:43;;;;;;;5.10;4.60;;;10.90;99.90;;;;;;6156490;23;21218;-87
2021/11/14 03:37:16;;;;;;;5.30;4.80;;;10.80;99.90;;;;;;6157803;23;20413;-87
2021/11/14 03:39:47;;;;;;;4.43;4.03;;;10.90;99.90;;;;;;6156083;23;20526;-85
2021/11/14 03:42:17;;;;;;;4.53;4.10;;;11.00;99.90;;;;;;6156579;23;20419;-86
2021/11/14 03:44:53;;;;;;;5.43;4.93;;;10.90;99.90;;;;;;6156063;23;20913;-86
2021/11/14 03:47:19;;;;;;;4.57;4.17;;;10.80;99.90;;;;;;6156828;23;20414;-86
2021/11/14 03:49:51;;;;;;;5.07;4.67;;;10.60;99.90;;;;;;6180623;23;20485;-86
2021/11/14 03:52:21;;;;;;;5.57;5.07;;;10.80;99.90;;;;;;6156685;23;20420;-85
2021/11/14 03:54:51;;;;;;;5.63;5.13;;;10.70;99.90;;;;;;6167543;23;20537;-91
2021/11/14 03:57:26;;;;;;;5.03;4.43;;;10.70;99.90;;;;;;6180269;23;20391;-91
2021/11/14 03:59:56;;;;;;;7.07;4.60;;;10.80;99.90;;;;;;6180463;23;20489;-89
2021/11/14 04:02:30;;;;;;;4.83;4.43;;;10.80;99.90;;;;;;6181162;23;20424;-91
2021/11/14 04:05:00;;;;;;;4.00;3.70;;;10.60;99.90;;;;;;6171556;23;20466;-86
2021/11/14 04:07:31;;;;;;;3.53;3.33;;;10.80;99.90;;;;;;6155952;23;20419;-87
2021/11/14 04:10:01;;;;;;;4.83;3.57;;;10.60;99.90;;;;;;6162302;23;20453;-90
2021/11/14 04:12:37;;;;;;;4.07;3.77;;;10.50;99.90;;;;;;6163970;23;21141;-87
2021/11/14 04:15:07;;;;;;;3.90;3.70;;;10.50;99.90;;;;;;6158626;23;20449;-88
2021/11/14 04:17:36;;;;;;;4.30;4.00;;;10.60;99.90;;;;;;6159913;23;20549;-87
2021/11/14 04:20:12;;;;;;;4.20;3.90;;;10.60;99.90;;;;;;6161631;23;20520;-86
2021/11/14 04:22:40;;;;;;;4.63;3.50;;;10.70;99.90;;;;;;6161400;23;20417;-87
2021/11/14 04:25:12;;;;;;;5.20;4.67;;;10.80;99.90;;;;;;6161209;23;20494;-86
2021/11/14 04:27:41;;;;;;;4.57;4.17;;;10.80;99.90;;;;;;6159630;23;20427;-86
2021/11/14 04:30:16;;;;;;;3.97;3.67;;;10.80;99.90;;;;;;6161130;23;20518;-87
2021/11/14 04:32:45;;;;;;;4.27;3.97;;;10.70;99.90;;;;;;6163768;23;20425;-87
2021/11/14 04:35:15;;;;;;;4.20;3.90;;;10.80;99.90;;;;;;6158362;23;20472;-87
2021/11/14 04:37:51;;;;;;;3.90;3.60;;;10.70;99.90;;;;;;6157970;23;20411;-86
2021/11/14 04:40:20;;;;;;;4.63;3.90;;;10.80;99.90;;;;;;6158544;23;20443;-88
2021/11/14 04:42:54;;;;;;;3.87;3.57;;;10.70;99.90;;;;;;6157893;23;20408;-87
2021/11/14 04:45:24;;;;;;;4.20;3.80;;;10.80;99.90;;;;;;6160230;23;20486;-88
2021/11/14 04:47:54;;;;;;;4.40;4.00;;;10.80;99.90;;;;;;6158661;23;20755;-87
2021/11/14 04:50:24;;;;;;;4.47;4.07;;;10.80;99.90;;;;;;6158690;23;20431;-88
2021/11/14 04:52:58;;;;;;;4.70;4.30;;;10.80;99.90;;;;;;6158860;23;20415;-86
2021/11/14 04:55:31;;;;;;;5.00;4.60;;;10.60;99.90;;;;;;6160928;23;20418;-86
2021/11/14 04:57:58;;;;;;;4.00;3.70;;;10.70;99.90;;;;;;6158841;23;20493;-87
2021/11/14 05:00:37;;;;;;;5.10;4.67;;;10.80;99.90;;;;;;6159150;23;20429;-87
2021/11/14 05:03:18;;;;;;;4.83;3.80;;;10.70;99.90;;;;;;6157977;23;20426;-86
2021/11/14 05:05:48;;;;;;;4.60;4.10;;;10.70;99.90;;;;;;6157923;23;20416;-87
2021/11/14 05:08:21;;;;;;;4.40;4.10;;;10.70;99.90;;;;;;6159133;23;20411;-86
2021/11/14 05:10:51;;;;;;;4.20;3.90;;;10.80;99.90;;;;;;6157832;23;20407;-87
2021/11/14 05:13:21;;;;;;;3.90;3.60;;;10.90;99.90;;;;;;6157277;23;20443;-86
2021/11/14 05:15:54;;;;;;;4.13;3.83;;;10.70;99.90;;;;;;6158236;23;20825;-88
2021/11/14 05:18:25;;;;;;;4.67;4.10;;;10.60;99.90;;;;;;6157064;23;20421;-86
2021/11/14 05:20:55;;;;;;;4.80;4.40;;;10.70;99.90;;;;;;6157393;23;20439;-86
2021/11/14 05:23:28;;;;;;;4.90;4.50;;;10.70;99.90;;;;;;6157791;23;20454;-87
2021/11/14 05:26:01;;;;;;;4.10;3.80;;;10.60;99.90;;;;;;6158661;23;20433;-86
2021/11/14 05:28:32;;;;;;;4.30;3.93;;;10.60;99.90;;;;;;6157676;23;20727;-86
2021/11/14 05:31:04;;;;;;;4.77;4.37;;;10.60;99.90;;;;;;6163158;23;20437;-91
2021/11/14 05:33:34;;;;;;;4.87;4.47;;;10.70;99.90;;;;;;6177940;23;20455;-91
2021/11/14 05:36:04;;;;;;;4.80;4.40;;;10.60;99.90;;;;;;6180172;23;20803;-89
2021/11/14 05:38:37;;;;;;;5.10;4.70;;;10.60;99.90;;;;;;6178024;23;20454;-92
2021/11/14 05:41:06;;;;;;;4.90;4.50;;;10.30;99.90;;;;;;6200529;23;20408;-88
2021/11/14 05:43:39;;;;;;;6.00;5.00;;;10.20;99.90;;;;;;6169534;23;20398;-92
2021/11/14 05:46:09;;;;;;;5.47;5.00;;;10.30;99.90;;;;;;6182449;23;20422;-91
2021/11/14 05:48:42;;;;;;;5.83;4.97;;;10.20;99.90;;;;;;6164260;23;20452;-89
2021/11/14 05:51:12;;;;;;;5.17;4.67;;;10.20;99.90;;;;;;6164208;23;20421;-88
2021/11/14 05:53:45;;;;;;;5.67;5.00;;;10.20;99.90;;;;;;6189638;23;20442;-88
2021/11/14 05:56:15;;;;;;;5.80;5.30;;;10.10;99.90;;;;;;6164550;23;20415;-88
2021/11/14 05:59:15;;;;;;;5.80;5.30;;;10.10;99.90;;;;;;6167310;23;20458;-86
2021/11/14 06:01:59;;;;;;;5.50;5.00;;;10.00;99.90;;;;;;6160200;23;20462;-86
2021/11/14 06:04:49;;;;;;;5.53;5.03;;;10.00;99.90;;;;;;6161897;23;20418;-87
2021/11/14 06:07:21;;;;;;;5.90;5.40;;;9.90;99.90;;;;;;6180427;23;20397;-90
2021/11/14 06:09:54;;;;;;;5.43;4.93;;;10.00;99.90;;;;;;6184842;23;20432;-89
2021/11/14 06:12:24;;;;;;;5.90;4.93;;;10.10;99.90;;;;;;6185022;23;20410;-92
2021/11/14 06:14:57;;;;;;;6.27;5.77;;;10.10;99.90;;;;;;6184813;23;20446;-90
2021/11/14 06:17:27;;;;;;;5.30;4.80;;;9.90;99.90;;;;;;6184661;23;20472;-92
2021/11/14 06:19:56;;;;;;;5.70;5.20;;;9.90;99.90;;;;;;6183259;23;20421;-92
2021/11/14 06:22:33;;;;;;;5.20;4.80;;;9.90;99.90;;;;;;6209522;23;20461;-92
2021/11/14 06:25:03;;;;;;;5.13;4.73;;;10.00;99.90;;;;;;6184185;23;20405;-93
2021/11/14 06:27:34;;;;;;;6.53;5.93;;;10.00;99.90;;;;;;6184815;23;20411;-92
2021/11/14 06:30:08;;;;;;;5.70;5.20;;;10.20;99.90;;;;;;6209562;23;20440;-90
2021/11/14 06:32:38;;;;;;;5.87;5.37;;;10.30;99.90;;;;;;6207405;23;20448;-87
2021/11/14 06:35:09;;;;;;;5.40;4.90;;;10.30;99.90;;;;;;6162869;23;20450;-86
2021/11/14 06:37:40;;;;;;;6.60;6.10;;;10.10;99.90;;;;;;6167846;23;20405;-92
2021/11/14 06:40:11;;;;;;;5.30;4.90;;;10.00;99.90;;;;;;6165791;23;20452;-87
2021/11/14 06:42:41;;;;;;;6.20;5.70;;;9.90;99.90;;;;;;6160138;23;20418;-87
2021/11/14 06:45:14;;;;;;;5.40;4.93;;;10.00;99.90;;;;;;6159645;23;20426;-87
2021/11/14 06:47:44;;;;;;;5.23;4.83;;;10.00;99.90;;;;;;6183552;23;20501;-88
2021/11/14 06:50:17;;;;;;;5.60;5.10;;;10.30;99.90;;;;;;6160276;23;20449;-87
2021/11/14 06:52:46;;;;;;;6.47;4.87;;;10.00;99.90;;;;;;6160270;23;20415;-88
2021/11/14 06:55:19;;;;;;;5.73;5.23;;;10.10;99.90;;;;;;6161788;23;20474;-87
2021/11/14 06:57:49;;;;;;;4.97;4.57;;;10.20;99.90;;;;;;6162466;23;20513;-85
2021/11/14 07:00:24;;;;;;;4.20;3.90;;;10.30;99.90;;;;;;6161508;23;20447;-87
2021/11/14 07:02:55;;;;;;;4.93;4.53;;;10.30;99.90;;;;;;6165295;23;20415;-89
2021/11/14 07:05:24;;;;;;;5.37;4.50;;;10.20;99.90;;;;;;6165360;23;20419;-87
2021/11/14 07:07:57;;;;;;;4.67;4.27;;;10.20;99.90;;;;;;6170300;23;20417;-88
2021/11/14 07:10:27;;;;;;;4.50;4.17;;;10.20;99.90;;;;;;6164880;23;20462;-89
2021/11/14 07:12:57;;;;;;;5.17;4.77;;;10.20;99.90;;;;;;6163335;23;20407;-90
2021/11/14 07:15:48;;;;;;;4.83;4.43;;;10.40;99.90;;;;;;6163402;23;20443;-88
2021/11/14 07:18:29;;;;;;;4.47;4.17;;;10.40;99.90;;;;;;6080383;23;20861;-86
2021/11/14 07:21:03;;;;;;;5.03;4.53;;;10.50;99.90;;;;;;6078762;23;20495;-88
2021/11/14 07:23:35;;;;;;;4.90;4.27;;;10.40;99.90;;;;;;6102890;23;20467;-88
2021/11/14 07:29:54;;;;;;;4.27;3.90;;;10.20;99.90;;;;;;6155592;23;20506;-88
2021/11/14 07:32:24;;;;;;;5.13;4.60;;;10.30;99.90;;;;;;6167184;23;20473;-87
2021/11/14 07:34:54;;;;;;;4.67;4.30;;;10.30;99.90;;;;;;6166987;23;20462;-87
2021/11/14 07:37:27;;;;;;;5.20;4.80;;;10.30;99.90;;;;;;6166869;23;20413;-89
2021/11/14 07:39:57;;;;;;;5.43;5.03;;;10.10;99.90;;;;;;6191001;23;20472;-88
2021/11/14 07:42:30;;;;;;;5.07;4.67;;;10.20;99.90;;;;;;6230072;23;20464;-88
2021/11/14 07:45:00;;;;;;;4.50;4.10;;;10.40;99.90;;;;;;6228629;23;20441;-89
2021/11/14 07:47:34;;;;;;;4.53;4.00;;;10.50;99.90;;;;;;6228906;23;20430;-87
2021/11/14 07:50:17;;;;;;;4.30;4.00;;;10.40;99.90;;;;;;6200420;23;20438;-89
2021/11/14 07:52:49;;;;;;;4.57;4.27;;;10.50;99.90;;;;;;6201248;23;20406;-89
2021/11/14 07:55:25;;;;;;;3.77;3.47;;;10.60;99.90;;;;;;6226791;23;20509;-87
2021/11/14 07:58:07;;;;;;;4.13;3.83;;;10.60;99.90;;;;;;6225958;23;20405;-88
2021/11/14 08:00:55;;;;;;;4.27;3.93;;;10.60;99.90;;;;;;6220935;23;20401;-87
2021/11/14 08:03:25;;;;;;;5.03;4.50;;;10.60;99.90;;;;;;6224895;23;20463;-89
2021/11/14 08:05:55;;;;;;;3.93;3.63;;;10.70;99.90;;;;;;6223166;23;20413;-89
2021/11/14 08:11:43;;;;;;;4.00;3.70;;;10.60;99.90;;;;;;6220982;23;20415;-89
2021/11/14 08:17:33;;;;;;;3.70;3.40;;;10.60;99.90;;;;;;6226599;23;20499;-86
2021/11/14 08:20:05;;;;;;;2.80;2.60;;;10.60;99.90;;;;;;6225898;23;20432;-86
2021/11/14 08:22:38;;;;;;;3.73;3.20;;;10.80;99.90;;;;;;6199583;23;20426;-90
2021/11/14 08:25:10;;;;;;;3.43;3.13;;;10.80;99.90;;;;;;6221096;23;20502;-88
2021/11/14 08:27:38;;;;;;;2.93;2.33;;;10.90;99.90;;;;;;6196509;23;20449;-87
2021/11/14 08:30:12;;;;;;;3.30;3.00;;;10.80;99.90;;;;;;6196472;23;20461;-92
2021/11/14 08:32:43;;;;;;;3.27;3.07;;;10.80;99.90;;;;;;6203402;23;20473;-85
2021/11/14 08:35:13;;;;;;;2.50;2.30;;;11.00;99.90;;;;;;6197269;23;20465;-88
2021/11/14 08:37:44;;;;;;;3.67;3.03;;;11.10;99.90;;;;;;6195396;23;20424;-85
2021/11/14 08:40:32;;;;;;;3.00;2.77;;;11.20;99.90;;;;;;6195042;23;20454;-86
2021/11/14 08:43:16;;;;;;;3.03;2.83;;;11.10;99.90;;;;;;6195722;23;20401;-88
2021/11/14 08:45:48;;;;;;;2.50;2.30;;;11.20;99.90;;;;;;6194007;23;20421;-88
2021/11/14 08:48:39;;;;;;;2.43;2.23;;;11.40;99.90;;;;;;6192318;23;20397;-88
2021/11/14 08:51:53;;;;;;;3.37;2.10;;;11.50;99.90;;;;;;6197340;23;20394;-88
2021/11/14 08:54:49;;;;;;;1.70;1.60;;;11.40;99.90;;;;;;6192578;23;20453;-87
2021/11/14 08:57:25;;;;;;;2.30;2.20;;;11.40;99.90;;;;;;6193288;23;20819;-89
2021/11/14 08:59:55;;;;;;;2.00;1.90;;;11.20;99.90;;;;;;6192726;23;20512;-87
2021/11/14 09:03:11;;;;;;;3.40;2.00;;;11.10;99.90;;;;;;6193468;23;20429;-88
2021/11/14 09:06:29;;;;;;;1.37;1.30;;;11.00;99.90;;;;;;6189284;23;20494;-86
2021/11/14 09:08:59;;;;;;;1.80;1.70;;;11.40;99.90;;;;;;6192777;23;21080;-87
2021/11/14 09:11:49;;;;;;;1.70;1.60;;;11.50;99.90;;;;;;6155861;23;20513;-86
2021/11/14 09:14:33;;;;;;;2.00;1.90;;;11.60;99.90;;;;;;6191835;23;20470;-88
2021/11/14 09:17:04;;;;;;;2.63;1.97;;;11.50;99.90;;;;;;6168062;23;20479;-86
2021/11/14 09:20:08;;;;;;;2.33;2.13;;;11.50;99.90;;;;;;6187221;23;20473;-84
2021/11/14 09:23:37;;;;;;;2.40;2.20;;;11.50;99.90;;;;;;6186478;23;20405;-92
2021/11/14 09:26:43;;;;;;;4.73;1.93;;;11.20;99.90;;;;;;6207254;23;20449;-90
2021/11/14 09:33:19;;;;;;;1.73;1.63;;;11.30;99.90;;;;;;6210559;23;20409;-90
2021/11/14 09:35:59;;;;;;;1.93;1.83;;;11.40;99.90;;;;;;6199998;23;20456;-86
2021/11/14 09:39:31;;;;;;;1.60;1.50;;;11.40;99.90;;;;;;6195159;23;20427;-87
2021/11/14 09:42:52;;;;;;;0.90;0.90;;;11.40;99.90;;;;;;6189059;23;20413;-87
2021/11/14 09:45:36;;;;;;;0.93;0.90;;;11.40;99.90;;;;;;6193857;23;20450;-89
2021/11/14 09:48:25;;;;;;;1.40;1.30;;;11.40;99.90;;;;;;6201657;23;20865;-85
2021/11/14 09:51:12;;;;;;;1.03;1.03;;;11.40;99.90;;;;;;6196644;23;20429;-86
2021/11/14 09:54:10;;;;;;;1.53;1.43;;;11.30;99.90;;;;;;6194889;23;20937;-87
2021/11/14 09:56:58;;;;;;;1.40;1.30;;;11.30;99.90;;;;;;6123446;23;20460;-89
2021/11/14 10:00:33;;;;;;;1.93;1.40;;;11.40;99.90;;;;;;6142098;23;20435;-87
2021/11/14 10:03:14;;;;;;;1.00;1.00;;;11.30;99.90;;;;;;6139929;23;20432;-86
2021/11/14 10:06:28;;;;;;;1.30;1.23;;;11.30;99.90;;;;;;6142629;23;20413;-87
2021/11/14 10:09:29;;;;;;;1.17;1.17;;;11.40;99.90;;;;;;6144152;23;20440;-87
2021/11/14 10:12:56;;;;;;;1.10;1.10;;;11.50;99.90;;;;;;6142452;23;20405;-88
2021/11/14 10:16:07;;;;;;;1.03;1.03;;;11.60;99.90;;;;;;6146908;23;20447;-88
2021/11/14 10:19:10;;;;;;;1.10;1.03;;;11.50;99.90;;;;;;6140452;23;20412;-87
2021/11/14 10:22:13;;;;;;;1.50;1.40;;;11.40;99.90;;;;;;6145569;23;20396;-86
2021/11/14 10:25:13;;;;;;;1.20;1.10;;;11.40;99.90;;;;;;6141526;23;20402;-86
2021/11/14 10:31:59;;;;;;;1.40;1.30;;;11.70;99.90;;;;;;6222495;23;20710;-86
2021/11/14 10:34:51;;;;;;;2.47;1.70;;;11.50;99.90;;;;;;6231251;23;20602;-85
2021/11/14 10:41:24;;;;;;;3.80;2.30;;;11.50;99.90;;;;;;6183738;23;20405;-90
2021/11/14 10:44:35;;;;;;;1.80;1.70;;;11.80;99.90;;;;;;6124785;23;20421;-87
2021/11/14 10:47:10;;;;;;;2.03;1.17;;;11.70;99.90;;;;;;6167694;23;20418;-87
2021/11/14 10:50:28;;;;;;;1.20;1.10;;;11.40;99.90;;;;;;6165846;23;20437;-89
2021/11/14 10:53:41;;;;;;;1.30;1.20;;;11.60;99.90;;;;;;6175611;23;20408;-88
2021/11/14 10:56:52;;;;;;;1.70;1.60;;;11.80;99.90;;;;;;6168415;23;20437;-88
2021/11/14 10:59:32;;;;;;;0.87;0.87;;;11.80;99.90;;;;;;6182540;23;20441;-87
2021/11/14 11:02:27;;;;;;;0.83;0.83;;;11.80;99.90;;;;;;6197920;23;20411;-86
2021/11/14 11:12:53;;;;;;;2.03;1.83;;;11.90;99.90;;;;;;6194331;23;20397;-86
2021/11/14 11:16:11;;;;;;;2.50;2.30;;;11.80;99.90;;;;;;6202466;23;20460;-89
2021/11/14 11:19:31;;;;;;;3.10;1.90;;;11.80;99.90;;;;;;6202742;23;20405;-86
2021/11/14 11:22:12;;;;;;;1.80;1.70;;;11.70;99.90;;;;;;6190655;23;20437;-87
2021/11/14 11:25:28;;;;;;;1.80;1.70;;;12.10;99.90;;;;;;6204315;23;20452;-87
2021/11/14 11:35:19;;;;;;;2.20;2.00;;;12.10;99.90;;;;;;6029159;23;20453;-87
2021/11/14 11:37:50;;;;;;;1.80;1.70;;;12.00;99.90;;;;;;6025245;23;20456;-87
2021/11/14 11:44:41;;;;;;;1.33;1.23;;;12.00;99.90;;;;;;6170695;23;20375;-86
2021/11/14 11:47:45;;;;;;;1.33;0.93;;;12.40;99.90;;;;;;6166825;23;20474;-85
2021/11/14 11:51:16;;;;;;;1.47;1.37;;;12.10;99.90;;;;;;6175163;23;20498;-86
2021/11/14 11:54:19;;;;;;;1.93;1.73;;;12.40;99.50;;;;;;6199146;23;20430;-87
2021/11/14 11:57:35;;;;;;;2.13;1.80;;;12.50;99.20;;;;;;6196088;23;20474;-86
2021/11/14 12:00:19;;;;;;;1.67;1.57;;;12.40;99.60;;;;;;6198592;23;20431;-87
2021/11/14 12:02:52;;;;;;;1.40;1.30;;;12.50;99.20;;;;;;6200337;23;20413;-88
2021/11/14 12:06:24;;;;;;;1.70;1.60;;;12.70;98.60;;;;;;6198933;23;20429;-88
2021/11/14 12:08:57;;;;;;;2.20;2.10;;;12.80;98.00;;;;;;6199927;23;20448;-87
2021/11/14 12:19:33;;;;;;;2.13;1.97;;;12.50;99.00;;;;;;6201795;23;20409;-86
2021/11/14 12:22:49;;;;;;;1.87;1.77;;;12.60;99.30;;;;;;6068164;23;20437;-86
2021/11/14 12:26:01;;;;;;;1.90;1.80;;;12.70;99.00;;;;;;6038017;23;21126;-87
2021/11/14 12:28:54;;;;;;;1.70;1.60;;;12.70;99.00;;;;;;5893493;24;20441;-86
2021/11/14 12:31:55;;;;;;;1.90;1.80;;;12.80;98.50;;;;;;5886559;24;20464;-89
2021/11/14 12:34:58;;;;;;;1.90;1.80;;;13.00;98.30;;;;;;5977502;23;20424;-88
2021/11/14 12:37:53;;;;;;;1.60;1.50;;;12.80;98.10;;;;;;5975671;24;20479;-87
2021/11/14 12:41:40;;;;;;;1.67;1.57;;;12.60;98.60;;;;;;6001578;23;20477;-87
2021/11/14 12:48:29;;;;;;;1.43;1.33;;;13.00;97.90;;;;;;6003481;23;20461;-86
2021/11/14 12:59:08;;;;;;;2.50;1.47;;;12.10;99.10;;;;;;5912898;23;20402;-88
2021/11/14 13:01:39;;;;;;;1.57;1.37;;;12.40;99.20;;;;;;6065550;23;20409;-86
2021/11/14 13:04:44;;;;;;;2.23;2.13;;;12.70;98.30;;;;;;6098352;23;20385;-89
2021/11/14 13:07:29;;;;;;;2.10;2.00;;;12.70;98.20;;;;;;6209992;23;20397;-86
2021/11/14 13:24:22;;;;;;;1.57;1.47;;;12.90;98.20;;;;;;6171302;23;20415;-90
2021/11/14 13:27:08;;;;;;;2.27;2.07;;;12.80;98.10;;;;;;6159258;23;20534;-85
2021/11/14 13:32:40;;;;;;;1.80;1.70;;;12.60;99.00;;;;;;6137092;23;20509;-86
2021/11/14 13:35:28;;;;;;;2.00;1.90;;;12.60;98.90;;;;;;6177033;23;20791;-88
2021/11/14 13:41:18;;;;;;;1.67;1.57;;;12.70;98.90;;;;;;6223882;23;20449;-89
2021/11/14 13:44:33;;;;;;;2.00;1.90;;;12.50;98.90;;;;;;6149774;23;20463;-88
2021/11/14 13:50:36;;;;;;;2.33;1.80;;;12.60;99.40;;;;;;6057355;23;20457;-87
2021/11/14 13:53:37;;;;;;;1.90;1.80;;;12.70;99.40;;;;;;6086539;23;20405;-86
2021/11/14 14:00:24;;;;;;;3.90;2.70;;;12.70;99.00;;;;;;5994393;23;20457;-85
2021/11/14 14:07:45;;;;;;;3.97;2.80;;;12.60;99.80;;;;;;5939826;24;20512;-88
2021/11/14 14:14:51;;;;;;;11.57;9.93;;;12.60;99.50;;;;;;5912737;24;20435;-86
2021/11/14 14:18:33;;;;;;;2.63;2.43;;;12.30;99.90;;;;;;5917605;24;20725;-86
2021/11/14 14:21:39;;;;;;;2.57;2.37;;;12.30;99.90;;;;;;5925706;23;20412;-85
2021/11/14 14:24:54;;;;;;;2.33;2.20;;;12.80;99.40;;;;;;5960025;24;20465;-86
2021/11/14 14:28:12;;;;;;;3.20;2.87;;;12.60;99.60;;;;;;6022448;23;20401;-88
2021/11/14 14:34:42;;;;;;;3.53;2.40;;;12.20;99.90;;;;;;6173056;23;20390;-87
2021/11/14 14:38:18;;;;;;;2.83;2.53;;;12.20;99.90;;;;;;6169149;23;20414;-88
2021/11/14 14:44:49;;;;;;;3.10;2.37;;;12.50;99.90;;;;;;6052854;23;20408;-87
2021/11/14 14:47:38;;;;;;;3.37;3.07;;;12.30;99.90;;;;;;6026484;23;20934;-85
2021/11/14 14:50:40;;;;;;;4.07;3.03;;;12.30;99.90;;;;;;6144405;23;20797;-90
2021/11/14 14:56:10;;;;;;;3.40;3.10;;;12.30;99.90;;;;;;6124267;23;20441;-89
2021/11/14 15:08:15;;;;;;;3.80;2.83;;;12.60;99.90;;;;;;6116255;23;20404;-87
2021/11/14 15:11:33;;;;;;;3.17;2.90;;;12.50;99.90;;;;;;5944827;24;20497;-86
2021/11/14 15:21:05;;;;;;;3.97;3.57;;;12.60;99.90;;;;;;6232334;23;20474;-86
2021/11/14 15:23:45;;;;;;;2.90;2.40;;;12.70;99.90;;;;;;6209501;23;20416;-87
2021/11/14 15:26:18;;;;;;;2.70;2.50;;;12.60;99.90;;;;;;6206842;23;20401;-89
2021/11/14 15:29:01;;;;;;;3.20;2.73;;;12.60;99.90;;;;;;6232830;23;20439;-87
2021/11/14 15:31:28;;;;;;;2.50;2.30;;;12.40;99.90;;;;;;6235299;23;20764;-85
2021/11/14 15:34:13;;;;;;;3.00;2.00;;;12.30;99.90;;;;;;6224894;23;20452;-85
2021/11/14 15:37:20;;;;;;;2.07;1.87;;;12.20;99.90;;;;;;6198970;23;20962;-89
2021/11/14 15:42:55;;;;;;;2.30;2.10;;;12.20;99.90;;;;;;6070940;23;20420;-86
2021/11/14 15:45:48;;;;;;;;;;;;;;;;;;;;;
2021/11/14 15:48:36;;;;;;;3.70;2.20;;;12.30;99.90;;;;;;6070482;23;20496;-89
2021/11/14 15:51:26;;;;;;;3.10;2.00;;;12.20;99.90;;;;;;6056648;23;20473;-86
2021/11/14 15:54:27;;;;;;;2.90;1.70;;;12.30;99.90;;;;;;6056594;23;20421;-86
2021/11/14 15:56:58;;;;;;;2.50;2.30;;;12.40;99.90;;;;;;6055083;23;20472;-87
2021/11/14 15:59:33;;;;;;;2.13;1.97;;;12.50;99.90;;;;;;6054425;23;20441;-86
2021/11/14 16:02:48;;;;;;;2.30;1.70;;;12.50;99.90;;;;;;6057100;23;20492;-87
2021/11/14 16:05:21;;;;;;;2.37;1.60;;;12.50;99.90;;;;;;6022308;23;20422;-86